sensor_id;sensor_type;location;lat;lon;timestamp;pressure;altitude;pressure_sealevel;temperature;humidity
36502;BME280;25393;46.108;3.390;2022-12-08T00:01:25;97595.78;;;0.38;100.00
36502;BME280;25393;46.108;3.390;2022-12-08T00:03:52;97617.84;;;0.45;100.00
36502;BME280;25393;46.108;3.390;2022-12-08T00:06:40;97614.03;;;0.49;100.00
36502;BME280;25393;46.108;3.390;2022-12-08T00:09:37;97613.81;;;0.41;100.00
36502;BME280;25393;46.108;3.390;2022-12-08T00:12:13;97613.91;;;0.40;100.00
36502;BME280;25393;46.108;3.390;2022-12-08T00:14:46;97600.78;;;0.41;100.00
36502;BME280;25393;46.108;3.390;2022-12-08T00:17:16;97598.38;;;0.49;100.00
36502;BME280;25393;46.108;3.390;2022-12-08T00:19:45;97588.91;;;0.37;100.00
36502;BME280;25393;46.108;3.390;2022-12-08T00:22:12;97597.09;;;0.44;100.00
36502;BME280;25393;46.108;3.390;2022-12-08T00:24:43;97586.16;;;0.39;100.00
36502;BME280;25393;46.108;3.390;2022-12-08T00:27:15;97586.66;;;0.44;100.00
36502;BME280;25393;46.108;3.390;2022-12-08T00:29:44;97582.03;;;0.47;100.00
36502;BME280;25393;46.108;3.390;2022-12-08T00:32:11;97578.13;;;0.53;100.00
36502;BME280;25393;46.108;3.390;2022-12-08T00:34:38;97583.34;;;0.53;100.00
36502;BME280;25393;46.108;3.390;2022-12-08T00:37:04;97587.97;;;0.49;100.00
36502;BME280;25393;46.108;3.390;2022-12-08T00:39:31;97582.38;;;0.43;100.00
36502;BME280;25393;46.108;3.390;2022-12-08T00:41:58;97570.91;;;0.34;100.00
36502;BME280;25393;46.108;3.390;2022-12-08T00:44:41;97574.34;;;0.35;100.00
36502;BME280;25393;46.108;3.390;2022-12-08T00:47:08;97578.13;;;0.31;100.00
36502;BME280;25393;46.108;3.390;2022-12-08T00:49:35;97560.22;;;0.26;100.00
36502;BME280;25393;46.108;3.390;2022-12-08T00:52:02;97542.78;;;0.16;100.00
36502;BME280;25393;46.108;3.390;2022-12-08T00:54:28;97551.81;;;0.34;100.00
36502;BME280;25393;46.108;3.390;2022-12-08T00:56:55;97546.47;;;0.24;100.00
36502;BME280;25393;46.108;3.390;2022-12-08T00:59:21;97544.56;;;0.26;100.00
36502;BME280;25393;46.108;3.390;2022-12-08T01:01:48;97541.16;;;0.37;100.00
36502;BME280;25393;46.108;3.390;2022-12-08T01:04:18;97546.34;;;0.37;100.00
36502;BME280;25393;46.108;3.390;2022-12-08T01:06:48;97551.91;;;0.32;100.00
36502;BME280;25393;46.108;3.390;2022-12-08T01:09:17;97548.72;;;0.29;100.00
36502;BME280;25393;46.108;3.390;2022-12-08T01:11:44;97555.50;;;0.31;100.00
36502;BME280;25393;46.108;3.390;2022-12-08T01:14:11;97544.22;;;0.20;100.00
36502;BME280;25393;46.108;3.390;2022-12-08T01:16:38;97543.13;;;0.22;100.00
36502;BME280;25393;46.108;3.390;2022-12-08T01:19:08;97527.13;;;0.05;100.00
36502;BME280;25393;46.108;3.390;2022-12-08T01:21:36;97539.47;;;0.14;100.00
36502;BME280;25393;46.108;3.390;2022-12-08T01:24:02;97541.34;;;0.12;100.00
36502;BME280;25393;46.108;3.390;2022-12-08T01:26:29;97542.88;;;0.03;100.00
36502;BME280;25393;46.108;3.390;2022-12-08T01:28:56;97535.03;;;-0.08;100.00
36502;BME280;25393;46.108;3.390;2022-12-08T01:31:23;97547.59;;;-0.02;100.00
36502;BME280;25393;46.108;3.390;2022-12-08T01:33:49;97538.81;;;-0.12;100.00
36502;BME280;25393;46.108;3.390;2022-12-08T01:36:21;97540.13;;;-0.07;100.00
36502;BME280;25393;46.108;3.390;2022-12-08T01:38:52;97537.88;;;-0.11;100.00
36502;BME280;25393;46.108;3.390;2022-12-08T01:41:28;97534.94;;;0.05;100.00
36502;BME280;25393;46.108;3.390;2022-12-08T01:46:40;97538.84;;;-0.01;100.00
36502;BME280;25393;46.108;3.390;2022-12-08T01:49:21;97543.09;;;-0.11;100.00
36502;BME280;25393;46.108;3.390;2022-12-08T01:51:58;97547.13;;;-0.07;100.00
36502;BME280;25393;46.108;3.390;2022-12-08T01:54:28;97545.47;;;-0.08;100.00
36502;BME280;25393;46.108;3.390;2022-12-08T01:56:58;97549.22;;;-0.23;100.00
36502;BME280;25393;46.108;3.390;2022-12-08T01:59:27;97540.50;;;-0.35;100.00
36502;BME280;25393;46.108;3.390;2022-12-08T02:01:56;97529.50;;;-0.38;100.00
36502;BME280;25393;46.108;3.390;2022-12-08T02:04:26;97551.22;;;-0.27;100.00
36502;BME280;25393;46.108;3.390;2022-12-08T02:06:56;97542.69;;;-0.29;100.00
36502;BME280;25393;46.108;3.390;2022-12-08T02:09:26;97551.22;;;-0.27;100.00
36502;BME280;25393;46.108;3.390;2022-12-08T02:11:54;97537.91;;;-0.35;100.00
36502;BME280;25393;46.108;3.390;2022-12-08T02:14:27;97546.91;;;-0.39;100.00
36502;BME280;25393;46.108;3.390;2022-12-08T02:17:18;97549.63;;;-0.40;100.00
36502;BME280;25393;46.108;3.390;2022-12-08T02:20:16;97541.47;;;-0.36;100.00
36502;BME280;25393;46.108;3.390;2022-12-08T02:34:48;97526.56;;;-0.34;100.00
36502;BME280;25393;46.108;3.390;2022-12-08T02:37:30;97518.50;;;-0.31;100.00
36502;BME280;25393;46.108;3.390;2022-12-08T02:40:09;97517.91;;;-0.34;100.00
36502;BME280;25393;46.108;3.390;2022-12-08T02:42:44;97518.16;;;-0.37;100.00
36502;BME280;25393;46.108;3.390;2022-12-08T02:45:20;97516.00;;;-0.43;100.00
36502;BME280;25393;46.108;3.390;2022-12-08T02:47:49;97510.28;;;-0.48;100.00
36502;BME280;25393;46.108;3.390;2022-12-08T02:50:17;97497.72;;;-0.55;100.00
36502;BME280;25393;46.108;3.390;2022-12-08T02:52:46;97508.84;;;-0.53;100.00
36502;BME280;25393;46.108;3.390;2022-12-08T02:58:33;97485.00;;;-0.46;100.00
36502;BME280;25393;46.108;3.390;2022-12-08T03:08:51;97470.44;;;-0.73;100.00
36502;BME280;25393;46.108;3.390;2022-12-08T03:11:37;97471.19;;;-0.71;100.00
36502;BME280;25393;46.108;3.390;2022-12-08T03:14:09;97462.03;;;-0.76;100.00
36502;BME280;25393;46.108;3.390;2022-12-08T03:16:40;97455.66;;;-0.72;100.00
36502;BME280;25393;46.108;3.390;2022-12-08T03:19:17;97448.69;;;-0.72;100.00
36502;BME280;25393;46.108;3.390;2022-12-08T03:21:50;97464.78;;;-0.67;100.00
36502;BME280;25393;46.108;3.390;2022-12-08T03:24:20;97463.94;;;-0.78;100.00
36502;BME280;25393;46.108;3.390;2022-12-08T03:26:56;97457.47;;;-0.96;100.00
36502;BME280;25393;46.108;3.390;2022-12-08T03:29:25;97453.75;;;-1.05;100.00
36502;BME280;25393;46.108;3.390;2022-12-08T03:32:00;97442.13;;;-1.12;100.00
36502;BME280;25393;46.108;3.390;2022-12-08T03:34:30;97451.97;;;-1.05;100.00
36502;BME280;25393;46.108;3.390;2022-12-08T03:36:59;97442.75;;;-1.09;100.00
36502;BME280;25393;46.108;3.390;2022-12-08T03:39:33;97433.44;;;-1.00;100.00
36502;BME280;25393;46.108;3.390;2022-12-08T03:42:00;97426.38;;;-1.22;100.00
36502;BME280;25393;46.108;3.390;2022-12-08T03:44:26;97429.13;;;-1.12;100.00
36502;BME280;25393;46.108;3.390;2022-12-08T03:46:54;97420.00;;;-1.18;100.00
36502;BME280;25393;46.108;3.390;2022-12-08T03:49:21;97424.28;;;-1.17;100.00
36502;BME280;25393;46.108;3.390;2022-12-08T03:51:48;97420.09;;;-1.19;100.00
36502;BME280;25393;46.108;3.390;2022-12-08T03:54:14;97426.75;;;-1.15;100.00
36502;BME280;25393;46.108;3.390;2022-12-08T03:56:41;97419.13;;;-1.29;100.00
36502;BME280;25393;46.108;3.390;2022-12-08T03:59:09;97412.00;;;-1.38;100.00
36502;BME280;25393;46.108;3.390;2022-12-08T04:01:35;97421.09;;;-1.33;100.00
36502;BME280;25393;46.108;3.390;2022-12-08T04:04:02;97404.28;;;-1.40;100.00
36502;BME280;25393;46.108;3.390;2022-12-08T04:06:33;97409.63;;;-1.41;100.00
36502;BME280;25393;46.108;3.390;2022-12-08T04:09:03;97412.22;;;-1.41;100.00
36502;BME280;25393;46.108;3.390;2022-12-08T04:11:32;97400.44;;;-1.34;100.00
36502;BME280;25393;46.108;3.390;2022-12-08T04:14:02;97409.31;;;-1.26;100.00
36502;BME280;25393;46.108;3.390;2022-12-08T04:16:28;97391.47;;;-1.30;100.00
36502;BME280;25393;46.108;3.390;2022-12-08T04:19:02;97386.69;;;-1.36;100.00
36502;BME280;25393;46.108;3.390;2022-12-08T04:21:28;97386.47;;;-1.33;100.00
36502;BME280;25393;46.108;3.390;2022-12-08T04:23:57;97386.81;;;-1.38;100.00
36502;BME280;25393;46.108;3.390;2022-12-08T04:26:27;97384.09;;;-1.36;100.00
36502;BME280;25393;46.108;3.390;2022-12-08T04:28:54;97392.84;;;-1.37;100.00
36502;BME280;25393;46.108;3.390;2022-12-08T04:31:20;97396.56;;;-1.53;100.00
36502;BME280;25393;46.108;3.390;2022-12-08T04:33:47;97396.25;;;-1.61;100.00
36502;BME280;25393;46.108;3.390;2022-12-08T04:36:14;97401.13;;;-1.56;100.00
36502;BME280;25393;46.108;3.390;2022-12-08T04:38:40;97402.06;;;-1.57;100.00
36502;BME280;25393;46.108;3.390;2022-12-08T04:41:07;97406.81;;;-1.51;100.00
36502;BME280;25393;46.108;3.390;2022-12-08T04:43:34;97400.09;;;-1.54;100.00
36502;BME280;25393;46.108;3.390;2022-12-08T04:46:07;97401.13;;;-1.56;100.00
36502;BME280;25393;46.108;3.390;2022-12-08T04:48:36;97392.72;;;-1.60;100.00
36502;BME280;25393;46.108;3.390;2022-12-08T04:51:03;97387.22;;;-1.55;100.00
36502;BME280;25393;46.108;3.390;2022-12-08T04:53:30;97381.34;;;-1.46;100.00
36502;BME280;25393;46.108;3.390;2022-12-08T04:56:10;97377.25;;;-1.37;100.00
36502;BME280;25393;46.108;3.390;2022-12-08T04:58:36;97385.75;;;-1.35;100.00
36502;BME280;25393;46.108;3.390;2022-12-08T05:01:05;97370.50;;;-1.40;100.00
36502;BME280;25393;46.108;3.390;2022-12-08T05:03:35;97371.84;;;-1.34;100.00
36502;BME280;25393;46.108;3.390;2022-12-08T05:06:05;97371.94;;;-1.36;100.00
36502;BME280;25393;46.108;3.390;2022-12-08T05:08:35;97365.81;;;-1.35;100.00
36502;BME280;25393;46.108;3.390;2022-12-08T05:11:07;97369.94;;;-1.32;100.00
36502;BME280;25393;46.108;3.390;2022-12-08T05:13:34;97356.56;;;-1.39;100.00
36502;BME280;25393;46.108;3.390;2022-12-08T05:16:05;97359.88;;;-1.37;100.00
36502;BME280;25393;46.108;3.390;2022-12-08T05:18:36;97368.63;;;-1.38;99.91
36502;BME280;25393;46.108;3.390;2022-12-08T05:21:05;97365.50;;;-1.43;99.82
36502;BME280;25393;46.108;3.390;2022-12-08T05:23:31;97365.41;;;-1.41;99.60
36502;BME280;25393;46.108;3.390;2022-12-08T05:26:02;97364.91;;;-1.46;99.07
36502;BME280;25393;46.108;3.390;2022-12-08T05:28:31;97361.41;;;-1.58;99.31
36502;BME280;25393;46.108;3.390;2022-12-08T05:31:08;97361.53;;;-1.60;97.30
36502;BME280;25393;46.108;3.390;2022-12-08T05:33:35;97354.06;;;-1.64;97.75
36502;BME280;25393;46.108;3.390;2022-12-08T05:36:02;97355.06;;;-1.54;100.00
36502;BME280;25393;46.108;3.390;2022-12-08T05:38:30;97353.81;;;-1.48;100.00
36502;BME280;25393;46.108;3.390;2022-12-08T05:40:57;97335.59;;;-1.48;100.00
36502;BME280;25393;46.108;3.390;2022-12-08T05:43:23;97344.38;;;-1.38;100.00
36502;BME280;25393;46.108;3.390;2022-12-08T05:45:50;97331.50;;;-1.40;100.00
36502;BME280;25393;46.108;3.390;2022-12-08T05:48:17;97324.53;;;-1.39;100.00
36502;BME280;25393;46.108;3.390;2022-12-08T05:50:47;97336.13;;;-1.32;100.00
36502;BME280;25393;46.108;3.390;2022-12-08T05:53:15;97325.88;;;-1.23;100.00
36502;BME280;25393;46.108;3.390;2022-12-08T05:55:42;97318.91;;;-1.22;99.00
36502;BME280;25393;46.108;3.390;2022-12-08T05:58:13;97330.63;;;-1.52;95.18
36502;BME280;25393;46.108;3.390;2022-12-08T06:00:40;97329.63;;;-1.85;97.13
36502;BME280;25393;46.108;3.390;2022-12-08T06:03:10;97329.31;;;-1.93;99.19
36502;BME280;25393;46.108;3.390;2022-12-08T06:05:41;97326.25;;;-1.98;99.19
36502;BME280;25393;46.108;3.390;2022-12-08T06:08:08;97323.97;;;-2.03;100.00
36502;BME280;25393;46.108;3.390;2022-12-08T06:10:38;97326.28;;;-2.11;100.00
36502;BME280;25393;46.108;3.390;2022-12-08T06:13:05;97332.06;;;-1.95;100.00
36502;BME280;25393;46.108;3.390;2022-12-08T06:15:35;97325.06;;;-2.18;99.57
36502;BME280;25393;46.108;3.390;2022-12-08T06:18:04;97316.84;;;-2.25;100.00
36502;BME280;25393;46.108;3.390;2022-12-08T06:20:34;97326.69;;;-2.05;100.00
36502;BME280;25393;46.108;3.390;2022-12-08T06:23:04;97317.84;;;-2.02;100.00
36502;BME280;25393;46.108;3.390;2022-12-08T06:25:30;97335.25;;;-1.91;100.00
36502;BME280;25393;46.108;3.390;2022-12-08T06:27:57;97328.22;;;-2.02;100.00
36502;BME280;25393;46.108;3.390;2022-12-08T06:30:23;97333.13;;;-2.10;100.00
36502;BME280;25393;46.108;3.390;2022-12-08T06:32:50;97326.00;;;-2.19;100.00
36502;BME280;25393;46.108;3.390;2022-12-08T06:35:16;97320.41;;;-2.26;100.00
36502;BME280;25393;46.108;3.390;2022-12-08T06:37:43;97314.47;;;-2.28;100.00
36502;BME280;25393;46.108;3.390;2022-12-08T06:40:10;97318.50;;;-2.24;100.00
36502;BME280;25393;46.108;3.390;2022-12-08T06:42:36;97307.16;;;-2.10;100.00
36502;BME280;25393;46.108;3.390;2022-12-08T06:45:11;97304.13;;;-2.04;100.00
36502;BME280;25393;46.108;3.390;2022-12-08T06:47:41;97311.91;;;-2.04;100.00
36502;BME280;25393;46.108;3.390;2022-12-08T06:50:09;97310.59;;;-2.10;100.00
36502;BME280;25393;46.108;3.390;2022-12-08T06:52:36;97309.56;;;-2.20;96.68
36502;BME280;25393;46.108;3.390;2022-12-08T06:55:14;97310.03;;;-2.02;94.59
36502;BME280;25393;46.108;3.390;2022-12-08T06:58:01;97304.56;;;-2.10;96.39
36502;BME280;25393;46.108;3.390;2022-12-08T07:00:27;97304.56;;;-2.10;99.20
36502;BME280;25393;46.108;3.390;2022-12-08T07:02:54;97305.94;;;-2.17;100.00
36502;BME280;25393;46.108;3.390;2022-12-08T07:05:21;97306.59;;;-2.26;100.00
36502;BME280;25393;46.108;3.390;2022-12-08T07:07:47;97309.50;;;-2.31;100.00
36502;BME280;25393;46.108;3.390;2022-12-08T07:10:14;97295.50;;;-2.41;99.28
36502;BME280;25393;46.108;3.390;2022-12-08T07:12:40;97300.78;;;-2.42;99.49
36502;BME280;25393;46.108;3.390;2022-12-08T07:15:07;97293.97;;;-2.43;99.51
36502;BME280;25393;46.108;3.390;2022-12-08T07:17:35;97298.81;;;-2.39;100.00
36502;BME280;25393;46.108;3.390;2022-12-08T07:20:02;97301.84;;;-2.32;100.00
36502;BME280;25393;46.108;3.390;2022-12-08T07:22:29;97295.50;;;-2.41;99.56
36502;BME280;25393;46.108;3.390;2022-12-08T07:24:56;97307.81;;;-2.32;98.50
36502;BME280;25393;46.108;3.390;2022-12-08T07:27:22;97301.94;;;-2.34;99.11
36502;BME280;25393;46.108;3.390;2022-12-08T07:29:49;97295.19;;;-2.36;98.59
36502;BME280;25393;46.108;3.390;2022-12-08T07:32:15;97287.88;;;-2.31;99.08
36502;BME280;25393;46.108;3.390;2022-12-08T07:34:42;97282.38;;;-2.27;99.66
36502;BME280;25393;46.108;3.390;2022-12-08T07:37:08;97284.75;;;-2.11;98.38
36502;BME280;25393;46.108;3.390;2022-12-08T07:39:37;97285.13;;;-2.05;97.76
36502;BME280;25393;46.108;3.390;2022-12-08T07:42:04;97294.66;;;-1.34;100.00
36502;BME280;25393;46.108;3.390;2022-12-08T07:44:30;97298.53;;;-0.05;93.71
36502;BME280;25393;46.108;3.390;2022-12-08T07:46:57;97274.44;;;1.19;84.28
36502;BME280;25393;46.108;3.390;2022-12-08T07:49:23;97274.91;;;2.23;75.17
36502;BME280;25393;46.108;3.390;2022-12-08T07:51:50;97268.97;;;3.08;70.52
36502;BME280;25393;46.108;3.390;2022-12-08T07:54:16;97265.72;;;3.79;67.44
36502;BME280;25393;46.108;3.390;2022-12-08T07:56:43;97251.88;;;4.32;63.10
36502;BME280;25393;46.108;3.390;2022-12-08T07:59:09;97246.84;;;4.74;61.21
36502;BME280;25393;46.108;3.390;2022-12-08T08:01:40;97247.69;;;5.00;59.78
36502;BME280;25393;46.108;3.390;2022-12-08T08:04:10;97253.97;;;5.07;58.52
36502;BME280;25393;46.108;3.390;2022-12-08T08:06:38;97250.75;;;5.13;58.95
36502;BME280;25393;46.108;3.390;2022-12-08T08:09:05;97249.56;;;5.33;57.91
36502;BME280;25393;46.108;3.390;2022-12-08T08:11:32;97242.53;;;5.42;56.25
36502;BME280;25393;46.108;3.390;2022-12-08T08:13:58;97249.19;;;5.54;56.08
36502;BME280;25393;46.108;3.390;2022-12-08T08:16:25;97244.78;;;5.54;55.75
36502;BME280;25393;46.108;3.390;2022-12-08T08:18:52;97244.09;;;5.52;56.07
36502;BME280;25393;46.108;3.390;2022-12-08T08:21:19;97232.97;;;5.33;56.40
36502;BME280;25393;46.108;3.390;2022-12-08T08:24:06;97241.13;;;5.22;57.33
36502;BME280;25393;46.108;3.390;2022-12-08T08:26:33;97238.72;;;5.02;56.64
36502;BME280;25393;46.108;3.390;2022-12-08T08:28:59;97238.25;;;4.89;58.27
36502;BME280;25393;46.108;3.390;2022-12-08T08:31:26;97240.25;;;4.70;58.68
36502;BME280;25393;46.108;3.390;2022-12-08T08:33:53;97243.19;;;4.49;60.10
36502;BME280;25393;46.108;3.390;2022-12-08T08:36:20;97233.50;;;4.49;60.62
36502;BME280;25393;46.108;3.390;2022-12-08T08:38:47;97245.28;;;4.63;61.65
36502;BME280;25393;46.108;3.390;2022-12-08T08:41:14;97235.50;;;4.91;61.68
36502;BME280;25393;46.108;3.390;2022-12-08T08:43:47;97235.59;;;5.07;61.24
36502;BME280;25393;46.108;3.390;2022-12-08T08:46:13;97246.78;;;5.09;61.43
36502;BME280;25393;46.108;3.390;2022-12-08T08:48:42;97242.69;;;5.07;62.27
36502;BME280;25393;46.108;3.390;2022-12-08T08:51:22;97224.56;;;5.03;63.03
36502;BME280;25393;46.108;3.390;2022-12-08T08:53:57;97242.91;;;5.21;62.95
36502;BME280;25393;46.108;3.390;2022-12-08T08:56:24;97243.75;;;5.22;62.19
36502;BME280;25393;46.108;3.390;2022-12-08T08:58:51;97247.50;;;5.19;62.03
36502;BME280;25393;46.108;3.390;2022-12-08T09:01:25;97237.16;;;5.18;62.07
36502;BME280;25393;46.108;3.390;2022-12-08T09:03:53;97239.97;;;5.24;62.28
36502;BME280;25393;46.108;3.390;2022-12-08T09:06:20;97228.56;;;5.33;62.08
36502;BME280;25393;46.108;3.390;2022-12-08T09:08:47;97234.84;;;5.40;61.95
36502;BME280;25393;46.108;3.390;2022-12-08T09:11:17;97230.09;;;5.44;61.62
36502;BME280;25393;46.108;3.390;2022-12-08T09:13:48;97229.91;;;5.45;63.15
36502;BME280;25393;46.108;3.390;2022-12-08T09:16:18;97223.69;;;5.46;63.39
36502;BME280;25393;46.108;3.390;2022-12-08T09:18:45;97231.94;;;5.51;64.08
36502;BME280;25393;46.108;3.390;2022-12-08T09:21:19;97219.50;;;5.62;63.47
36502;BME280;25393;46.108;3.390;2022-12-08T09:23:57;97222.13;;;5.87;62.65
36502;BME280;25393;46.108;3.390;2022-12-08T09:26:26;97220.63;;;5.93;63.32
36502;BME280;25393;46.108;3.390;2022-12-08T09:28:54;97218.53;;;6.13;61.48
36502;BME280;25393;46.108;3.390;2022-12-08T09:31:22;97201.47;;;6.25;61.29
36502;BME280;25393;46.108;3.390;2022-12-08T09:33:49;97203.66;;;6.45;61.00
36502;BME280;25393;46.108;3.390;2022-12-08T09:36:19;97201.00;;;6.62;61.03
36502;BME280;25393;46.108;3.390;2022-12-08T09:38:46;97217.00;;;6.84;60.20
36502;BME280;25393;46.108;3.390;2022-12-08T09:41:16;97210.91;;;6.92;60.18
36502;BME280;25393;46.108;3.390;2022-12-08T09:43:55;97216.16;;;6.92;60.29
36502;BME280;25393;46.108;3.390;2022-12-08T09:46:27;97205.94;;;7.05;60.02
36502;BME280;25393;46.108;3.390;2022-12-08T09:48:57;97196.88;;;7.08;59.90
36502;BME280;25393;46.108;3.390;2022-12-08T09:51:26;97190.28;;;7.20;59.23
36502;BME280;25393;46.108;3.390;2022-12-08T09:56:30;97199.94;;;7.35;58.50
36502;BME280;25393;46.108;3.390;2022-12-08T09:59:02;97203.06;;;7.47;58.54
36502;BME280;25393;46.108;3.390;2022-12-08T10:01:31;97193.44;;;7.70;58.33
36502;BME280;25393;46.108;3.390;2022-12-08T10:04:29;97199.22;;;7.66;55.90
36502;BME280;25393;46.108;3.390;2022-12-08T10:07:17;97188.16;;;7.70;57.06
36502;BME280;25393;46.108;3.390;2022-12-08T10:10:17;97179.09;;;7.65;55.64
36502;BME280;25393;46.108;3.390;2022-12-08T10:13:03;97177.88;;;7.83;55.98
36502;BME280;25393;46.108;3.390;2022-12-08T10:18:16;97162.56;;;7.71;55.46
36502;BME280;25393;46.108;3.390;2022-12-08T10:20:48;97168.41;;;7.97;55.74
36502;BME280;25393;46.108;3.390;2022-12-08T10:23:35;97152.34;;;8.07;55.70
36502;BME280;25393;46.108;3.390;2022-12-08T10:26:10;97161.66;;;8.48;55.00
36502;BME280;25393;46.108;3.390;2022-12-08T10:28:37;97147.72;;;8.77;53.77
36502;BME280;25393;46.108;3.390;2022-12-08T10:31:19;97146.06;;;9.13;53.66
36502;BME280;25393;46.108;3.390;2022-12-08T10:33:48;97133.75;;;9.20;52.94
36502;BME280;25393;46.108;3.390;2022-12-08T10:36:18;97124.72;;;9.00;53.79
36502;BME280;25393;46.108;3.390;2022-12-08T10:38:45;97139.38;;;9.02;53.25
36502;BME280;25393;46.108;3.390;2022-12-08T10:41:13;97138.56;;;9.17;52.71
36502;BME280;25393;46.108;3.390;2022-12-08T10:43:47;97139.00;;;8.91;53.21
36502;BME280;25393;46.108;3.390;2022-12-08T10:46:19;97132.38;;;9.24;52.41
36502;BME280;25393;46.108;3.390;2022-12-08T10:48:51;97119.16;;;9.10;51.75
36502;BME280;25393;46.108;3.390;2022-12-08T10:53:58;97115.78;;;8.86;51.44
36502;BME280;25393;46.108;3.390;2022-12-08T10:56:28;97109.88;;;8.62;52.98
36502;BME280;25393;46.108;3.390;2022-12-08T11:01:36;97103.63;;;8.40;53.35
36502;BME280;25393;46.108;3.390;2022-12-08T11:04:12;97106.78;;;8.13;54.43
36502;BME280;25393;46.108;3.390;2022-12-08T11:06:43;97104.94;;;8.13;54.99
36502;BME280;25393;46.108;3.390;2022-12-08T11:14:54;97084.38;;;8.31;55.62
36502;BME280;25393;46.108;3.390;2022-12-08T11:17:28;97082.91;;;8.29;54.14
36502;BME280;25393;46.108;3.390;2022-12-08T11:22:41;97077.88;;;8.19;55.65
36502;BME280;25393;46.108;3.390;2022-12-08T11:25:22;97068.81;;;8.14;54.79
36502;BME280;25393;46.108;3.390;2022-12-08T11:27:56;97057.22;;;8.23;55.61
36502;BME280;25393;46.108;3.390;2022-12-08T11:30:42;97055.00;;;8.49;54.80
36502;BME280;25393;46.108;3.390;2022-12-08T11:33:20;97057.78;;;8.70;54.13
36502;BME280;25393;46.108;3.390;2022-12-08T11:36:05;97047.75;;;8.80;54.20
36502;BME280;25393;46.108;3.390;2022-12-08T11:38:40;97045.75;;;8.68;54.85
36502;BME280;25393;46.108;3.390;2022-12-08T11:41:10;97046.09;;;8.27;54.55
36502;BME280;25393;46.108;3.390;2022-12-08T11:44:04;97050.88;;;8.32;55.24
36502;BME280;25393;46.108;3.390;2022-12-08T11:46:37;97038.78;;;8.89;54.07
36502;BME280;25393;46.108;3.390;2022-12-08T11:49:11;97034.03;;;8.99;52.53
36502;BME280;25393;46.108;3.390;2022-12-08T11:51:39;97026.34;;;9.04;52.50
36502;BME280;25393;46.108;3.390;2022-12-08T11:54:23;97018.03;;;9.22;53.11
36502;BME280;25393;46.108;3.390;2022-12-08T11:56:59;97009.56;;;9.27;51.86
36502;BME280;25393;46.108;3.390;2022-12-08T11:59:38;97006.22;;;9.03;52.03
36502;BME280;25393;46.108;3.390;2022-12-08T12:02:13;96997.53;;;9.24;51.65
36502;BME280;25393;46.108;3.390;2022-12-08T12:04:48;96999.34;;;9.38;50.66
36502;BME280;25393;46.108;3.390;2022-12-08T12:07:26;96992.13;;;9.32;49.90
36502;BME280;25393;46.108;3.390;2022-12-08T12:20:54;96972.31;;;9.85;51.07
36502;BME280;25393;46.108;3.390;2022-12-08T12:23:35;96970.72;;;9.84;51.01
36502;BME280;25393;46.108;3.390;2022-12-08T12:26:06;96964.91;;;10.17;50.17
36502;BME280;25393;46.108;3.390;2022-12-08T12:28:50;96954.03;;;10.12;50.05
36502;BME280;25393;46.108;3.390;2022-12-08T12:31:23;96950.50;;;10.04;50.34
36502;BME280;25393;46.108;3.390;2022-12-08T12:33:54;96946.44;;;10.23;50.60
36502;BME280;25393;46.108;3.390;2022-12-08T12:36:22;96940.09;;;10.24;49.93
36502;BME280;25393;46.108;3.390;2022-12-08T12:38:52;96929.72;;;10.23;49.71
36502;BME280;25393;46.108;3.390;2022-12-08T12:41:54;96932.88;;;10.39;48.94
36502;BME280;25393;46.108;3.390;2022-12-08T12:46:56;96925.88;;;10.04;50.49
36502;BME280;25393;46.108;3.390;2022-12-08T12:54:35;96909.56;;;10.28;50.09
36502;BME280;25393;46.108;3.390;2022-12-08T13:02:01;96898.44;;;10.39;49.95
36502;BME280;25393;46.108;3.390;2022-12-08T13:04:32;96912.03;;;10.30;50.98
36502;BME280;25393;46.108;3.390;2022-12-08T13:07:00;96907.13;;;10.27;50.17
36502;BME280;25393;46.108;3.390;2022-12-08T13:09:38;96896.47;;;10.48;50.27
36502;BME280;25393;46.108;3.390;2022-12-08T13:12:19;96902.94;;;10.45;49.87
36502;BME280;25393;46.108;3.390;2022-12-08T13:14:49;96897.53;;;10.60;49.07
36502;BME280;25393;46.108;3.390;2022-12-08T13:17:26;96887.91;;;10.52;49.75
36502;BME280;25393;46.108;3.390;2022-12-08T13:19:56;96882.81;;;10.51;50.68
36502;BME280;25393;46.108;3.390;2022-12-08T13:28:19;96878.47;;;10.09;50.32
36502;BME280;25393;46.108;3.390;2022-12-08T13:30:48;96886.47;;;9.88;50.97
36502;BME280;25393;46.108;3.390;2022-12-08T13:33:39;96895.25;;;9.67;52.25
36502;BME280;25393;46.108;3.390;2022-12-08T13:38:39;96872.72;;;8.93;53.67
36502;BME280;25393;46.108;3.390;2022-12-08T13:41:16;96877.66;;;8.96;53.83
36502;BME280;25393;46.108;3.390;2022-12-08T13:44:04;96874.56;;;8.92;53.99
36502;BME280;25393;46.108;3.390;2022-12-08T13:46:54;96869.03;;;9.09;55.30
36502;BME280;25393;46.108;3.390;2022-12-08T13:49:49;96853.50;;;8.84;54.91
36502;BME280;25393;46.108;3.390;2022-12-08T13:52:54;96862.94;;;8.72;55.60
36502;BME280;25393;46.108;3.390;2022-12-08T13:55:45;96867.66;;;8.62;55.05
36502;BME280;25393;46.108;3.390;2022-12-08T13:58:35;96864.69;;;8.65;55.56
36502;BME280;25393;46.108;3.390;2022-12-08T14:01:19;96858.59;;;8.50;55.77
36502;BME280;25393;46.108;3.390;2022-12-08T14:03:52;96861.66;;;8.24;56.48
36502;BME280;25393;46.108;3.390;2022-12-08T14:06:44;96858.75;;;7.90;59.86
36502;BME280;25393;46.108;3.390;2022-12-08T14:09:16;96858.00;;;7.67;59.18
36502;BME280;25393;46.108;3.390;2022-12-08T14:11:56;96845.59;;;7.30;59.74
36502;BME280;25393;46.108;3.390;2022-12-08T14:14:41;96852.78;;;7.21;60.62
36502;BME280;25393;46.108;3.390;2022-12-08T14:17:29;96860.53;;;7.15;60.48
36502;BME280;25393;46.108;3.390;2022-12-08T14:20:03;96864.28;;;6.97;61.07
36502;BME280;25393;46.108;3.390;2022-12-08T14:22:37;96864.38;;;6.81;61.92
36502;BME280;25393;46.108;3.390;2022-12-08T14:25:05;96868.88;;;6.73;63.22
36502;BME280;25393;46.108;3.390;2022-12-08T14:27:35;96862.50;;;6.59;63.32
36502;BME280;25393;46.108;3.390;2022-12-08T14:32:58;96883.41;;;6.14;64.04
36502;BME280;25393;46.108;3.390;2022-12-08T14:35:38;96865.88;;;5.82;66.89
36502;BME280;25393;46.108;3.390;2022-12-08T14:38:12;96884.81;;;5.61;67.51
36502;BME280;25393;46.108;3.390;2022-12-08T14:40:42;96882.34;;;5.51;68.27
36502;BME280;25393;46.108;3.390;2022-12-08T14:48:43;96864.59;;;5.21;71.03